createdAt,value
2023-05-14T00:00:47.828Z,12.90
2023-05-14T00:03:14.630Z,12.80
2023-05-14T00:05:41.418Z,12.80
2023-05-14T00:08:08.168Z,12.80
2023-05-14T00:10:34.914Z,12.80
2023-05-14T00:13:01.632Z,12.80
2023-05-14T00:15:28.775Z,12.90
2023-05-14T00:17:55.533Z,12.80
2023-05-14T00:20:22.270Z,12.80
2023-05-14T00:22:48.980Z,12.90
2023-05-14T00:25:15.651Z,12.80
2023-05-14T00:27:42.267Z,12.80
2023-05-14T00:30:09.191Z,12.80
2023-05-14T00:32:35.871Z,12.90
2023-05-14T00:35:04.253Z,13.00
2023-05-14T00:37:30.999Z,13.00
2023-05-14T00:39:58.267Z,13.10
2023-05-14T00:42:25.058Z,13.10
2023-05-14T00:44:51.647Z,13.10
2023-05-14T00:47:18.693Z,13.10
2023-05-14T00:49:45.694Z,13.00
2023-05-14T00:52:15.106Z,13.00
2023-05-14T00:54:42.060Z,12.90
2023-05-14T00:57:09.019Z,12.80
2023-05-14T00:59:35.851Z,12.80
2023-05-14T01:02:02.543Z,12.80
2023-05-14T01:04:29.675Z,12.80
2023-05-14T01:07:16.658Z,12.80
2023-05-14T01:09:54.838Z,12.80
2023-05-14T01:12:32.810Z,12.80
2023-05-14T01:15:10.867Z,12.90
2023-05-14T01:17:43.428Z,12.80
2023-05-14T01:20:11.029Z,12.70
2023-05-14T01:22:38.223Z,12.70
2023-05-14T01:25:06.103Z,12.70
2023-05-14T01:27:49.792Z,12.70
2023-05-14T01:30:31.782Z,12.70
2023-05-14T01:33:02.928Z,12.80
2023-05-14T01:35:30.428Z,12.80
2023-05-14T01:38:00.624Z,12.70
2023-05-14T01:40:28.186Z,12.80
2023-05-14T01:42:55.245Z,12.70
2023-05-14T01:45:24.968Z,12.80
2023-05-14T01:47:51.760Z,12.70
2023-05-14T01:50:18.601Z,12.70
2023-05-14T01:52:45.254Z,12.60
2023-05-14T01:55:12.005Z,12.70
2023-05-14T01:57:38.643Z,12.60
2023-05-14T02:00:06.061Z,12.50
2023-05-14T02:02:40.900Z,12.40
2023-05-14T02:05:10.652Z,12.20
2023-05-14T02:07:37.329Z,12.20
2023-05-14T02:10:04.420Z,12.20
2023-05-14T02:12:31.148Z,12.10
2023-05-14T02:14:57.819Z,12.20
2023-05-14T02:17:26.046Z,12.10
2023-05-14T02:19:52.919Z,12.00
2023-05-14T02:22:19.559Z,12.00
2023-05-14T02:24:46.230Z,12.00
2023-05-14T02:27:13.253Z,12.10
2023-05-14T02:29:39.903Z,12.20
2023-05-14T02:32:06.841Z,12.20
2023-05-14T02:34:34.388Z,12.20
2023-05-14T02:37:01.319Z,12.20
2023-05-14T02:39:27.909Z,12.20
2023-05-14T02:41:54.648Z,12.30
2023-05-14T02:44:21.365Z,12.10
2023-05-14T02:46:48.146Z,12.10
2023-05-14T02:49:14.825Z,12.10
2023-05-14T02:51:41.420Z,12.00
2023-05-14T02:54:08.187Z,12.00
2023-05-14T02:56:34.769Z,11.90
2023-05-14T02:59:01.400Z,11.80
2023-05-14T03:01:28.568Z,11.80
2023-05-14T03:03:55.796Z,11.70
2023-05-14T03:06:22.471Z,11.70
2023-05-14T03:08:49.100Z,11.70
2023-05-14T03:11:15.852Z,11.70
2023-05-14T03:13:42.450Z,11.60
2023-05-14T03:16:09.426Z,11.60
2023-05-14T03:18:36.822Z,11.60
2023-05-14T03:21:03.918Z,11.60
2023-05-14T03:23:31.942Z,11.60
2023-05-14T03:25:58.759Z,11.50
2023-05-14T03:28:25.948Z,11.40
2023-05-14T03:30:52.796Z,11.40
2023-05-14T03:33:19.623Z,11.30
2023-05-14T03:35:46.192Z,11.30
2023-05-14T03:38:12.798Z,11.20
2023-05-14T03:40:39.510Z,11.20
2023-05-14T03:43:06.150Z,11.20
2023-05-14T03:45:33.812Z,11.30
2023-05-14T03:48:00.466Z,11.20
2023-05-14T03:50:27.466Z,11.10
2023-05-14T03:52:54.901Z,11.10
2023-05-14T03:55:21.738Z,11.00
2023-05-14T03:57:49.043Z,11.00
2023-05-14T04:00:15.935Z,11.00
2023-05-14T04:02:45.566Z,11.00
2023-05-14T04:05:12.378Z,11.00
2023-05-14T04:07:38.970Z,10.90
2023-05-14T04:10:06.260Z,10.90
2023-05-14T04:12:35.254Z,10.80
2023-05-14T04:15:02.683Z,10.80
2023-05-14T04:17:29.332Z,10.90
2023-05-14T04:19:56.793Z,10.90
2023-05-14T04:22:24.228Z,10.90
2023-05-14T04:24:51.935Z,11.00
2023-05-14T04:27:22.134Z,11.10
2023-05-14T04:29:49.690Z,11.10
2023-05-14T04:32:16.486Z,11.10
2023-05-14T04:34:43.236Z,11.10
2023-05-14T04:37:09.985Z,11.10
2023-05-14T04:39:36.832Z,11.10
2023-05-14T04:42:03.721Z,11.20
2023-05-14T04:44:30.389Z,11.10
2023-05-14T04:46:57.117Z,11.10
2023-05-14T04:49:23.712Z,11.10
2023-05-14T04:51:50.659Z,11.10
2023-05-14T04:54:17.337Z,11.10
2023-05-14T04:56:44.012Z,11.10
2023-05-14T04:59:10.631Z,11.10
2023-05-14T05:01:37.429Z,11.10
2023-05-14T05:04:04.308Z,11.10
2023-05-14T05:06:31.547Z,11.10
2023-05-14T05:08:59.069Z,11.20
2023-05-14T05:11:27.214Z,11.30
2023-05-14T05:13:53.820Z,11.30
2023-05-14T05:16:20.497Z,11.40
2023-05-14T05:18:47.218Z,11.40
2023-05-14T05:21:13.831Z,11.50
2023-05-14T05:23:40.530Z,11.60
2023-05-14T05:26:07.242Z,11.60
2023-05-14T05:28:33.852Z,11.70
2023-05-14T05:31:00.542Z,11.80
2023-05-14T05:33:27.229Z,11.90
2023-05-14T05:35:53.878Z,12.00
2023-05-14T05:38:20.615Z,12.20
2023-05-14T05:40:47.932Z,12.40
2023-05-14T05:43:15.341Z,12.60
2023-05-14T05:45:42.008Z,12.80
2023-05-14T05:48:08.666Z,13.10
2023-05-14T05:50:35.375Z,13.30
2023-05-14T05:53:02.051Z,13.60
2023-05-14T05:55:29.631Z,13.60
2023-05-14T05:57:56.238Z,13.80
2023-05-14T06:00:23.924Z,14.20
2023-05-14T06:02:52.264Z,14.80
2023-05-14T06:05:19.493Z,15.20
2023-05-14T06:07:46.140Z,15.60
2023-05-14T06:10:12.760Z,15.90
2023-05-14T06:12:39.465Z,16.30
2023-05-14T06:15:06.855Z,16.60
2023-05-14T06:17:33.513Z,16.80
2023-05-14T06:20:00.274Z,16.90
2023-05-14T06:22:26.897Z,17.00
2023-05-14T06:24:53.530Z,16.80
2023-05-14T06:27:20.142Z,16.70
2023-05-14T06:29:46.730Z,16.50
2023-05-14T06:32:15.471Z,16.40
2023-05-14T06:34:42.542Z,16.40
2023-05-14T06:37:10.339Z,16.80
2023-05-14T06:39:37.667Z,16.90
2023-05-14T06:42:04.842Z,16.90
2023-05-14T06:44:31.650Z,17.10
2023-05-14T06:46:58.411Z,17.50
2023-05-14T06:49:25.133Z,17.80
2023-05-14T06:51:52.278Z,17.90
2023-05-14T06:54:20.311Z,18.10
2023-05-14T06:56:47.033Z,18.20
2023-05-14T06:59:13.648Z,18.60
2023-05-14T07:01:40.816Z,18.50
2023-05-14T07:04:07.886Z,18.20
2023-05-14T07:06:34.620Z,18.30
2023-05-14T07:09:02.012Z,18.60
2023-05-14T07:11:28.978Z,18.80
2023-05-14T07:13:55.783Z,19.20
2023-05-14T07:16:22.481Z,19.60
2023-05-14T07:18:49.147Z,19.50
2023-05-14T07:21:15.800Z,19.30
2023-05-14T07:23:42.375Z,19.20
2023-05-14T07:26:09.093Z,19.40
2023-05-14T07:28:35.709Z,20.00
2023-05-14T07:31:04.836Z,20.50
2023-05-14T07:33:31.545Z,20.70
2023-05-14T07:35:58.159Z,20.80
2023-05-14T07:38:24.813Z,20.70
2023-05-14T07:40:51.470Z,20.70
2023-05-14T07:43:18.080Z,20.80
2023-05-14T07:45:44.970Z,20.70
2023-05-14T07:48:11.830Z,20.30
2023-05-14T07:50:38.813Z,20.10
2023-05-14T07:53:05.402Z,20.20
2023-05-14T07:55:32.037Z,20.00
2023-05-14T07:57:58.608Z,20.00
2023-05-14T08:00:25.716Z,20.20
2023-05-14T08:02:52.875Z,20.30
2023-05-14T08:05:19.818Z,20.50
2023-05-14T08:07:46.471Z,20.70
2023-05-14T08:10:13.151Z,20.60
2023-05-14T08:12:39.916Z,20.70
2023-05-14T08:15:07.703Z,20.90
2023-05-14T08:17:34.377Z,21.00
2023-05-14T08:20:01.660Z,21.00
2023-05-14T08:22:28.259Z,21.00
2023-05-14T08:24:54.929Z,20.60
2023-05-14T08:27:21.502Z,20.80
2023-05-14T08:29:48.131Z,21.10
2023-05-14T08:32:22.939Z,21.40
2023-05-14T08:34:51.445Z,21.60
2023-05-14T08:37:18.126Z,21.40
2023-05-14T08:39:44.727Z,21.30
2023-05-14T08:42:13.184Z,21.50
2023-05-14T08:44:48.722Z,21.60
2023-05-14T08:47:17.714Z,21.60
2023-05-14T08:49:47.189Z,21.70
2023-05-14T08:52:15.931Z,21.60
2023-05-14T08:54:42.952Z,21.90
2023-05-14T08:57:10.915Z,21.90
2023-05-14T08:59:37.891Z,21.80
2023-05-14T09:02:06.700Z,21.60
2023-05-14T09:04:34.705Z,22.00
2023-05-14T09:07:02.652Z,22.20
2023-05-14T09:09:29.577Z,22.30
2023-05-14T09:11:56.189Z,22.20
2023-05-14T09:14:23.803Z,22.30
2023-05-14T09:16:51.646Z,22.20
2023-05-14T09:19:19.723Z,22.60
2023-05-14T09:21:47.606Z,22.70
2023-05-14T09:24:25.247Z,22.60
2023-05-14T09:26:56.667Z,22.50
2023-05-14T09:29:30.218Z,22.70
2023-05-14T09:31:58.179Z,22.50
2023-05-14T09:34:26.485Z,22.30
2023-05-14T09:37:02.963Z,22.10
2023-05-14T09:39:30.474Z,21.80
2023-05-14T09:41:57.413Z,21.60
2023-05-14T09:44:24.831Z,22.00
2023-05-14T09:46:52.659Z,22.50
2023-05-14T09:49:20.245Z,22.60
2023-05-14T09:51:48.170Z,22.50
2023-05-14T09:54:14.872Z,22.80
2023-05-14T09:56:42.800Z,22.90
2023-05-14T09:59:09.460Z,22.60
2023-05-14T10:01:37.530Z,22.60
2023-05-14T10:04:07.894Z,22.50
2023-05-14T10:06:38.001Z,22.40
2023-05-14T10:09:09.893Z,22.30
2023-05-14T10:11:38.851Z,22.20
2023-05-14T10:14:18.532Z,22.10
2023-05-14T10:16:49.509Z,22.00
2023-05-14T10:19:18.215Z,21.70
2023-05-14T10:21:49.023Z,21.40
2023-05-14T10:24:16.541Z,21.50
2023-05-14T10:26:43.367Z,21.60
2023-05-14T10:29:11.282Z,21.30
2023-05-14T10:31:53.549Z,20.90
2023-05-14T10:34:43.661Z,21.10
2023-05-14T10:37:13.929Z,21.20
2023-05-14T10:39:47.756Z,21.10
2023-05-14T10:42:18.045Z,21.30
2023-05-14T10:44:50.496Z,21.30
2023-05-14T10:47:17.970Z,21.50
2023-05-14T10:49:48.957Z,21.60
2023-05-14T10:52:19.479Z,21.70
2023-05-14T10:55:01.967Z,21.50
2023-05-14T10:57:31.554Z,21.60
2023-05-14T10:59:59.943Z,21.90
2023-05-14T11:02:33.595Z,22.00
2023-05-14T11:05:04.284Z,22.10
2023-05-14T11:07:35.908Z,22.10
2023-05-14T11:10:04.220Z,22.20
2023-05-14T11:12:31.249Z,22.30
2023-05-14T11:14:59.368Z,22.20
2023-05-14T11:17:27.289Z,22.10
2023-05-14T11:19:54.982Z,22.10
2023-05-14T11:22:22.411Z,22.10
2023-05-14T11:24:49.320Z,22.00
2023-05-14T11:27:17.185Z,21.70
2023-05-14T11:29:46.102Z,21.60
2023-05-14T11:32:14.043Z,21.60
2023-05-14T11:34:41.615Z,21.50
2023-05-14T11:37:09.958Z,21.30
2023-05-14T11:39:37.556Z,21.30
2023-05-14T11:42:09.481Z,21.20
2023-05-14T11:44:36.655Z,21.20
2023-05-14T11:47:04.926Z,21.10
2023-05-14T11:49:32.283Z,21.20
2023-05-14T11:52:03.501Z,21.30
2023-05-14T11:54:30.962Z,21.30
2023-05-14T11:56:58.865Z,21.30
2023-05-14T11:59:31.592Z,21.30
2023-05-14T12:01:59.011Z,21.40
2023-05-14T12:04:26.043Z,21.50
2023-05-14T12:06:53.240Z,21.70
2023-05-14T12:09:21.224Z,21.70
2023-05-14T12:11:48.948Z,21.70
2023-05-14T12:14:21.067Z,21.80
2023-05-14T12:16:48.810Z,21.90
2023-05-14T12:19:17.442Z,22.00
2023-05-14T12:21:45.234Z,22.10
2023-05-14T12:24:22.360Z,22.30
2023-05-14T12:26:50.582Z,22.50
2023-05-14T12:29:17.581Z,22.50
2023-05-14T12:31:49.032Z,22.40
2023-05-14T12:34:16.860Z,22.50
2023-05-14T12:36:43.846Z,22.50
2023-05-14T12:39:12.079Z,22.30
2023-05-14T12:41:38.716Z,22.20
2023-05-14T12:44:05.630Z,22.20
2023-05-14T12:46:33.960Z,22.20
2023-05-14T12:49:01.016Z,22.20
2023-05-14T12:51:27.645Z,22.30
2023-05-14T12:53:54.283Z,22.20
2023-05-14T12:56:21.444Z,22.20
2023-05-14T12:58:48.195Z,22.30
2023-05-14T13:01:15.067Z,22.40
2023-05-14T13:03:41.758Z,22.50
2023-05-14T13:06:08.477Z,22.50
2023-05-14T13:08:35.466Z,22.60
2023-05-14T13:11:02.158Z,22.60
2023-05-14T13:13:28.866Z,22.40
2023-05-14T13:15:55.562Z,22.20
2023-05-14T13:18:22.261Z,22.00
2023-05-14T13:20:49.094Z,21.70
2023-05-14T13:23:15.733Z,21.60
2023-05-14T13:25:42.365Z,21.50
2023-05-14T13:28:09.061Z,21.50
2023-05-14T13:30:35.916Z,21.60
2023-05-14T13:33:02.669Z,21.50
2023-05-14T13:35:29.426Z,21.30
2023-05-14T13:37:56.023Z,21.30
2023-05-14T13:40:22.744Z,21.30
2023-05-14T13:42:49.371Z,21.30
2023-05-14T13:45:16.013Z,21.30
2023-05-14T13:47:42.648Z,21.40
2023-05-14T13:50:09.504Z,21.50
2023-05-14T13:52:36.458Z,21.60
2023-05-14T13:55:03.246Z,21.70
2023-05-14T13:57:29.859Z,21.70
2023-05-14T13:59:56.484Z,22.00
2023-05-14T14:02:23.126Z,22.10
2023-05-14T14:04:49.837Z,22.10
2023-05-14T14:07:16.475Z,22.10
2023-05-14T14:09:43.057Z,22.10
2023-05-14T14:12:10.168Z,22.10
2023-05-14T14:14:36.801Z,22.10
2023-05-14T14:17:03.486Z,22.10
2023-05-14T14:19:30.135Z,22.20
2023-05-14T14:21:56.815Z,21.90
2023-05-14T14:24:23.420Z,21.80
2023-05-14T14:26:50.026Z,21.60
2023-05-14T14:29:16.717Z,21.50
2023-05-14T14:31:43.529Z,21.40
2023-05-14T14:34:10.240Z,21.50
2023-05-14T14:36:36.867Z,21.50
2023-05-14T14:39:03.591Z,21.50
2023-05-14T14:41:30.246Z,21.50
2023-05-14T14:43:57.257Z,21.70
2023-05-14T14:46:23.959Z,21.80
2023-05-14T14:48:51.147Z,21.80
2023-05-14T14:51:17.899Z,21.90
2023-05-14T14:53:44.521Z,21.80
2023-05-14T14:56:11.168Z,21.70
2023-05-14T14:58:38.266Z,21.70
2023-05-14T15:01:05.250Z,21.70
2023-05-14T15:03:32.302Z,21.50
2023-05-14T15:05:59.094Z,21.30
2023-05-14T15:08:27.991Z,21.30
2023-05-14T15:10:59.211Z,21.10
2023-05-14T15:13:26.850Z,21.00
2023-05-14T15:15:53.555Z,20.90
2023-05-14T15:18:20.470Z,20.90
2023-05-14T15:20:47.131Z,20.80
2023-05-14T15:23:13.842Z,20.90
2023-05-14T15:25:40.510Z,21.00
2023-05-14T15:28:07.475Z,21.10
2023-05-14T15:30:34.398Z,21.10
2023-05-14T15:33:01.090Z,20.90
2023-05-14T15:35:27.972Z,20.90
2023-05-14T15:37:58.935Z,20.90
2023-05-14T15:40:27.249Z,20.90
2023-05-14T15:42:54.016Z,20.90
2023-05-14T15:45:20.809Z,21.10
2023-05-14T15:47:47.419Z,21.30
2023-05-14T15:50:14.233Z,21.40
2023-05-14T15:52:41.356Z,21.40
2023-05-14T15:55:08.454Z,21.30
2023-05-14T15:57:35.202Z,21.30
2023-05-14T16:00:07.311Z,21.20
2023-05-14T16:02:33.962Z,21.10
2023-05-14T16:05:00.685Z,21.10
2023-05-14T16:07:27.415Z,21.10
2023-05-14T16:09:54.102Z,21.10
2023-05-14T16:12:20.742Z,21.10
2023-05-14T16:14:47.470Z,21.10
2023-05-14T16:17:14.115Z,21.10
2023-05-14T16:19:40.912Z,21.00
2023-05-14T16:22:07.689Z,21.10
2023-05-14T16:24:34.317Z,20.90
2023-05-14T16:27:00.945Z,20.90
2023-05-14T16:29:27.912Z,21.00
2023-05-14T16:31:54.848Z,21.00
2023-05-14T16:34:21.557Z,20.90
2023-05-14T16:36:48.408Z,20.90
2023-05-14T16:39:15.080Z,20.80
2023-05-14T16:41:41.774Z,20.80
2023-05-14T16:44:08.487Z,20.80
2023-05-14T16:46:35.222Z,20.80
2023-05-14T16:49:04.599Z,20.80
2023-05-14T16:51:31.685Z,20.90
2023-05-14T16:53:58.390Z,20.90
2023-05-14T16:56:25.042Z,20.90
2023-05-14T16:58:51.750Z,20.90
2023-05-14T17:01:18.596Z,20.80
2023-05-14T17:03:45.650Z,20.90
2023-05-14T17:06:12.366Z,20.90
2023-05-14T17:08:38.969Z,20.80
2023-05-14T17:11:05.882Z,20.70
2023-05-14T17:13:33.001Z,20.80
2023-05-14T17:16:00.502Z,20.80
2023-05-14T17:18:27.303Z,20.70
2023-05-14T17:20:53.914Z,20.60
2023-05-14T17:23:20.611Z,20.60
2023-05-14T17:25:48.294Z,20.50
2023-05-14T17:28:15.002Z,20.50
2023-05-14T17:30:41.618Z,20.40
2023-05-14T17:33:08.456Z,20.40
2023-05-14T17:35:36.193Z,20.50
2023-05-14T17:38:03.311Z,20.50
2023-05-14T17:40:29.932Z,20.60
2023-05-14T17:42:56.565Z,20.50
2023-05-14T17:45:23.571Z,20.40
2023-05-14T17:47:51.448Z,20.40
2023-05-14T17:50:18.922Z,20.40
2023-05-14T17:52:46.067Z,20.40
2023-05-14T17:55:12.935Z,20.40
2023-05-14T17:57:39.692Z,20.40
2023-05-14T18:00:07.412Z,20.40
2023-05-14T18:02:37.511Z,20.40
2023-05-14T18:05:04.528Z,20.40
2023-05-14T18:07:31.329Z,20.40
2023-05-14T18:09:58.124Z,20.30
2023-05-14T18:12:26.529Z,20.00
2023-05-14T18:14:53.802Z,19.80
2023-05-14T18:17:20.716Z,19.60
2023-05-14T18:19:47.504Z,19.50
2023-05-14T18:22:15.347Z,19.30
2023-05-14T18:24:44.000Z,19.30
2023-05-14T18:27:11.021Z,19.30
2023-05-14T18:29:37.682Z,19.20
2023-05-14T18:32:04.884Z,19.20
2023-05-14T18:34:31.477Z,19.20
2023-05-14T18:36:58.352Z,19.20
2023-05-14T18:39:24.952Z,19.10
2023-05-14T18:41:51.959Z,19.00
2023-05-14T18:44:18.715Z,19.00
2023-05-14T18:46:45.584Z,19.00
2023-05-14T18:49:12.433Z,19.00
2023-05-14T18:51:39.040Z,19.00
2023-05-14T18:54:05.732Z,19.00
2023-05-14T18:56:32.355Z,19.00
2023-05-14T18:58:59.335Z,19.00
2023-05-14T19:01:26.109Z,19.00
2023-05-14T19:03:53.141Z,19.00
2023-05-14T19:06:20.090Z,19.10
2023-05-14T19:08:46.785Z,19.10
2023-05-14T19:11:13.522Z,19.10
2023-05-14T19:13:40.342Z,19.10
2023-05-14T19:16:07.161Z,19.00
2023-05-14T19:18:34.227Z,19.00
2023-05-14T19:21:00.927Z,18.90
2023-05-14T19:23:27.600Z,18.80
2023-05-14T19:25:54.284Z,18.80
2023-05-14T19:28:21.192Z,18.70
2023-05-14T19:30:50.560Z,18.60
2023-05-14T19:33:17.691Z,18.60
2023-05-14T19:35:44.504Z,18.50
2023-05-14T19:38:11.186Z,18.20
2023-05-14T19:40:38.004Z,18.10
2023-05-14T19:43:04.634Z,18.00
2023-05-14T19:45:31.365Z,17.90
2023-05-14T19:47:58.101Z,17.80
2023-05-14T19:50:24.784Z,17.80
2023-05-14T19:52:51.599Z,17.70
2023-05-14T19:55:18.411Z,17.80
2023-05-14T19:57:45.031Z,17.70
2023-05-14T20:00:12.036Z,17.60
2023-05-14T20:02:40.882Z,17.60
2023-05-14T20:05:11.441Z,17.60
2023-05-14T20:07:40.152Z,17.50
2023-05-14T20:10:07.699Z,17.30
2023-05-14T20:12:34.346Z,17.30
2023-05-14T20:15:01.007Z,17.20
2023-05-14T20:17:27.727Z,17.10
2023-05-14T20:19:54.358Z,17.00
2023-05-14T20:22:21.056Z,17.00
2023-05-14T20:24:47.712Z,16.90
2023-05-14T20:27:14.382Z,16.90
2023-05-14T20:29:41.106Z,16.90
2023-05-14T20:32:08.093Z,16.90
2023-05-14T20:34:34.737Z,17.00
2023-05-14T20:37:01.735Z,16.90
2023-05-14T20:39:28.316Z,16.90
2023-05-14T20:41:54.964Z,16.90
2023-05-14T20:44:21.690Z,16.90
2023-05-14T20:46:48.470Z,16.80
2023-05-14T20:49:15.274Z,16.60
2023-05-14T20:51:41.920Z,16.50
2023-05-14T20:54:08.549Z,16.40
2023-05-14T20:56:36.422Z,16.30
2023-05-14T20:59:03.067Z,16.20
2023-05-14T21:01:29.746Z,16.20
2023-05-14T21:03:56.516Z,16.30
2023-05-14T21:06:23.451Z,16.20
2023-05-14T21:08:50.073Z,16.00
2023-05-14T21:11:16.670Z,15.90
2023-05-14T21:13:44.398Z,15.90
2023-05-14T21:16:12.559Z,16.00
2023-05-14T21:18:39.260Z,16.00
2023-05-14T21:21:05.915Z,16.10
2023-05-14T21:23:32.527Z,16.10
2023-05-14T21:25:59.131Z,16.10
2023-05-14T21:28:25.768Z,16.00
2023-05-14T21:30:52.877Z,15.90
2023-05-14T21:33:19.577Z,15.90
2023-05-14T21:35:46.259Z,15.80
2023-05-14T21:38:12.893Z,15.90
2023-05-14T21:40:39.586Z,15.90
2023-05-14T21:43:06.500Z,15.90
2023-05-14T21:45:33.164Z,15.90
2023-05-14T21:47:59.882Z,15.80
2023-05-14T21:50:26.855Z,15.70
2023-05-14T21:52:53.475Z,15.60
2023-05-14T21:55:20.203Z,15.50
2023-05-14T21:57:46.876Z,15.50
2023-05-14T22:00:18.317Z,15.50
2023-05-14T22:02:45.043Z,15.50
2023-05-14T22:05:11.686Z,15.60
2023-05-14T22:07:38.302Z,15.60
2023-05-14T22:10:05.176Z,15.50
2023-05-14T22:12:32.073Z,15.50
2023-05-14T22:14:58.719Z,15.50
2023-05-14T22:17:26.563Z,15.50
2023-05-14T22:19:53.233Z,15.50
2023-05-14T22:22:19.818Z,15.50
2023-05-14T22:24:46.467Z,15.50
2023-05-14T22:27:13.089Z,15.40
2023-05-14T22:29:39.698Z,15.30
2023-05-14T22:32:08.017Z,15.20
2023-05-14T22:34:34.599Z,15.20
2023-05-14T22:37:01.280Z,15.20
2023-05-14T22:39:27.870Z,15.20
2023-05-14T22:41:55.117Z,15.00
2023-05-14T22:44:22.850Z,15.00
2023-05-14T22:46:49.938Z,15.10
2023-05-14T22:49:16.833Z,15.10
2023-05-14T22:51:43.678Z,15.10
2023-05-14T22:54:10.542Z,15.20
2023-05-14T22:56:37.806Z,15.30
2023-05-14T22:59:04.418Z,15.30
2023-05-14T23:01:31.749Z,15.30
2023-05-14T23:03:58.387Z,15.20
2023-05-14T23:06:25.435Z,15.10
2023-05-14T23:08:52.043Z,15.10
2023-05-14T23:11:19.074Z,15.00
2023-05-14T23:13:46.070Z,15.00
2023-05-14T23:16:12.744Z,15.00
2023-05-14T23:18:39.606Z,15.00
2023-05-14T23:21:06.387Z,15.10
2023-05-14T23:23:32.977Z,15.20
2023-05-14T23:25:59.810Z,15.20
2023-05-14T23:28:26.749Z,15.20
2023-05-14T23:30:53.390Z,15.10
2023-05-14T23:33:19.962Z,15.00
2023-05-14T23:35:46.641Z,15.00
2023-05-14T23:38:13.422Z,14.90
2023-05-14T23:40:40.091Z,14.90
2023-05-14T23:43:06.728Z,14.90
2023-05-14T23:45:33.625Z,14.80
2023-05-14T23:48:01.367Z,14.80
2023-05-14T23:50:28.084Z,14.70
2023-05-14T23:52:55.889Z,14.60
2023-05-14T23:55:22.852Z,14.60
2023-05-14T23:57:49.615Z,14.60
